C40 weather

Miller Airport
Bluffton, Indiana, United States

Public forecast

Using degrees Fahrenheit for public forecast. Weather courtesy of forecast.io.

METAR (pilot weather report)

Closest report is Huntington Municipal Airport, 12.5 nm (23.1 km) NW. Retrieved 2019/04/21 18:15 UTC (0 seconds ago):

KHHG 211815Z AUTO 00000KT 10SM CLR 17/05 A3009 RMK AO2 T01650049

TAF (pilot weather forecast)

Closest forecast is Fort Wayne International Airport, 15.9 nm (29.5 km) N. Retrieved 2019/04/21 18:34 UTC (0 seconds ago):

TAF KFWA 211732Z 2118/2218 19005KT P6SM SCT250 FM221500 19012KT P6SM BKN150